Time;durP1;ratioP1;P1;durP2;ratioP2;P2;SDS_P1;SDS_P2;PMS_P1;PMS_P2;Temp;Humidity;BMP_temperature;BMP_pressure;BME280_temperature;BME280_humidity;BME280_pressure;Samples;Min_cycle;Max_cycle;Signal;HPM_P1;HPM_P2
2020/12/21 00:00:24;;;;;;;184.05;55.33;;;;;;;-2.86;100.00;100004.34;2080878;28;20226;-73
2020/12/21 00:01:25;;;;;;;176.10;54.60;;;;;;;-2.87;100.00;100005.34;2081020;28;20314;-73
2020/12/21 00:02:26;;;;;;;165.98;51.70;;;;;;;-2.82;100.00;100011.81;2080903;28;20586;-73
2020/12/21 00:03:27;;;;;;;183.30;54.87;;;;;;;-2.81;100.00;100008.19;2080890;28;20365;-73
2020/12/21 00:04:28;;;;;;;189.32;54.25;;;;;;;-2.86;100.00;100000.94;2079964;28;20278;-73
2020/12/21 00:05:30;;;;;;;169.67;54.93;;;;;;;-2.92;100.00;100002.47;2080117;28;20223;-73
2020/12/21 00:06:31;;;;;;;170.43;57.17;;;;;;;-2.89;100.00;100004.72;2080769;28;20228;-72
2020/12/21 00:07:32;;;;;;;178.80;52.47;;;;;;;-2.91;100.00;100004.09;2080944;28;20285;-73
2020/12/21 00:08:33;;;;;;;255.27;57.97;;;;;;;-2.95;100.00;100002.88;2080735;28;20705;-73
2020/12/21 00:09:35;;;;;;;164.07;52.70;;;;;;;-3.04;100.00;100014.41;2079998;28;20683;-73
2020/12/21 00:10:36;;;;;;;214.98;54.85;;;;;;;-3.09;100.00;100010.72;2080959;28;20235;-73
2020/12/21 00:11:40;;;;;;;295.77;56.10;;;;;;;-3.16;100.00;100005.41;2096074;28;20222;-74
2020/12/21 00:12:42;;;;;;;205.02;53.00;;;;;;;-3.20;100.00;100012.81;2095743;28;20626;-72
2020/12/21 00:13:44;;;;;;;162.70;52.83;;;;;;;-3.18;100.00;100012.63;2080766;28;20238;-72
2020/12/21 00:14:44;;;;;;;189.98;53.65;;;;;;;-3.18;100.00;100012.63;2080751;28;20223;-73
2020/12/21 00:15:45;;;;;;;219.27;53.00;;;;;;;-3.19;100.00;100016.22;2080312;28;20226;-72
2020/12/21 00:16:48;;;;;;;203.93;52.72;;;;;;;-3.18;100.00;100012.63;2080148;28;20230;-72
2020/12/21 00:17:49;;;;;;;230.00;56.47;;;;;;;-3.18;100.00;100020.47;2080239;28;20226;-72
2020/12/21 00:18:49;;;;;;;219.00;58.40;;;;;;;-3.17;100.00;100004.63;2080030;28;20702;-73
2020/12/21 00:19:51;;;;;;;232.43;56.93;;;;;;;-3.11;100.00;100008.31;2079963;28;20683;-72
2020/12/21 00:20:51;;;;;;;221.23;55.88;;;;;;;-3.05;100.00;100012.75;2079722;28;20239;-75
2020/12/21 00:21:53;;;;;;;316.83;62.53;;;;;;;-3.10;100.00;100007.31;2079859;28;20228;-73
2020/12/21 00:22:54;;;;;;;166.18;53.85;;;;;;;-3.16;100.00;100010.63;2079815;28;20223;-72
2020/12/21 00:23:55;;;;;;;233.23;56.23;;;;;;;-3.21;100.00;100013.81;2079935;28;20744;-72
2020/12/21 00:24:57;;;;;;;157.23;53.00;;;;;;;-3.17;100.00;100024.69;2080651;28;20242;-72
2020/12/21 00:25:58;;;;;;;203.48;54.05;;;;;;;-3.12;100.00;100014.50;2079849;28;20233;-73
2020/12/21 00:26:59;;;;;;;244.05;55.55;;;;;;;-3.14;100.00;100019.09;2080041;28;20231;-72
2020/12/21 00:28:00;;;;;;;238.63;56.17;;;;;;;-3.19;100.00;100030.09;2080835;28;20224;-72
2020/12/21 00:29:01;;;;;;;264.95;57.28;;;;;;;-3.19;100.00;100027.47;2079928;28;20254;-72
2020/12/21 00:30:03;;;;;;;291.83;58.33;;;;;;;-3.17;100.00;100032.50;2079822;28;20224;-72
2020/12/21 00:31:04;;;;;;;169.95;53.38;;;;;;;-3.14;100.00;100029.53;2079968;28;20338;-72
2020/12/21 00:32:05;;;;;;;183.13;55.00;;;;;;;-3.14;100.00;100021.69;2080021;28;20245;-72
2020/12/21 00:33:06;;;;;;;193.90;54.45;;;;;;;-3.08;100.00;100018.38;2080051;28;20230;-72
2020/12/21 00:34:08;;;;;;;210.33;54.80;;;;;;;-3.02;100.00;100022.84;2080435;28;20254;-75
2020/12/21 00:35:08;;;;;;;384.58;60.53;;;;;;;-3.07;100.00;100019.97;2080722;28;20227;-73
2020/12/21 00:36:09;;;;;;;270.53;57.97;;;;;;;-3.14;100.00;100019.91;2080085;28;20243;-73
2020/12/21 00:37:11;;;;;;;254.70;56.38;;;;;;;-3.04;100.00;100031.84;2079864;28;20219;-72
2020/12/21 00:38:11;;;;;;;243.50;54.63;;;;;;;-2.95;100.00;100028.97;2080628;28;21893;-72
2020/12/21 00:39:12;;;;;;;226.53;54.83;;;;;;;-2.94;100.00;100029.78;2080079;28;20702;-72
2020/12/21 00:40:14;;;;;;;224.95;54.30;;;;;;;-2.91;100.00;100027.59;2079971;28;20239;-72
2020/12/21 00:41:17;;;;;;;246.65;53.58;;;;;;;-2.88;100.00;100024.59;2080664;28;20682;-71
2020/12/21 00:42:18;;;;;;;208.70;53.50;;;;;;;-2.87;100.00;100031.47;2080697;28;20568;-72
2020/12/21 00:43:19;;;;;;;180.83;50.57;;;;;;;-2.86;100.00;100032.28;2080695;28;20314;-72
2020/12/21 00:44:20;;;;;;;248.82;53.35;;;;;;;-2.86;100.00;100029.66;2079810;28;20219;-72
2020/12/21 00:45:21;;;;;;;180.93;50.37;;;;;;;-2.87;100.00;100036.69;2079803;28;20791;-72
2020/12/21 00:46:24;;;;;;;165.57;50.03;;;;;;;-2.92;100.00;100035.63;2079999;28;20682;-72
2020/12/21 00:47:25;;;;;;;224.05;52.03;;;;;;;-3.00;100.00;100028.69;2079819;28;20235;-71
2020/12/21 00:48:28;;;;;;;164.88;52.30;;;;;;;-2.91;100.00;100034.63;2079896;28;20235;-72
2020/12/21 00:49:29;;;;;;;144.93;49.35;;;;;;;-2.88;100.00;100032.44;2079848;28;20341;-72
2020/12/21 00:50:31;;;;;;;172.93;48.70;;;;;;;-2.89;100.00;100032.63;2079776;28;20306;-72
2020/12/21 00:51:32;;;;;;;130.20;49.30;;;;;;;-2.88;100.00;100040.25;2079789;28;20609;-72
2020/12/21 00:52:33;;;;;;;164.43;46.97;;;;;;;-2.90;100.00;100034.44;2079772;28;20577;-72
2020/12/21 00:53:34;;;;;;;200.60;53.00;;;;;;;-2.89;100.00;100033.44;2079723;28;20306;-72
2020/12/21 00:54:35;;;;;;;214.77;52.05;;;;;;;-2.93;100.00;100028.78;2080654;28;20248;-72
2020/12/21 00:55:38;;;;;;;169.53;48.67;;;;;;;-2.86;100.00;100027.84;2080783;28;20223;-72
2020/12/21 00:56:39;;;;;;;196.40;48.58;;;;;;;-2.79;100.00;100032.31;2080327;28;20234;-72
2020/12/21 00:57:40;;;;;;;180.67;48.93;;;;;;;-2.99;100.00;100014.66;2080620;28;20223;-72
2020/12/21 00:58:41;;;;;;;196.27;51.83;;;;;;;-2.81;100.00;100034.31;2080486;28;20553;-72
2020/12/21 00:59:42;;;;;;;172.57;51.43;;;;;;;-2.83;100.00;100037.13;2079598;28;20390;-73
2020/12/21 01:00:43;;;;;;;194.25;51.90;;;;;;;-2.93;100.00;100021.75;2071517;28;20235;-72
2020/12/21 01:01:44;;;;;;;228.63;53.07;;;;;;;-2.89;100.00;100019.56;2071354;28;20231;-76
2020/12/21 01:02:45;;;;;;;162.45;50.35;;;;;;;-2.91;100.00;100022.38;2079781;28;20262;-75
2020/12/21 01:03:46;;;;;;;164.73;49.90;;;;;;;-2.90;100.00;100023.97;2080514;28;20226;-76
2020/12/21 01:04:47;;;;;;;160.38;50.72;;;;;;;-2.85;100.00;100034.69;2080432;28;20227;-72
2020/12/21 01:05:48;;;;;;;205.30;50.63;;;;;;;-2.93;100.00;100037.41;2080268;28;20305;-77
2020/12/21 01:06:54;;;;;;;144.00;48.97;;;;;;;-2.91;100.00;100027.59;2079527;28;20577;-72
2020/12/21 01:07:54;;;;;;;160.25;50.35;;;;;;;-2.90;100.00;100026.59;2072714;28;20236;-72
2020/12/21 01:08:57;;;;;;;152.23;52.77;;;;;;;-2.89;100.00;100027.41;2072046;28;20232;-72
2020/12/21 01:09:58;;;;;;;129.02;49.92;;;;;;;-2.91;100.00;100019.75;2071788;28;20232;-72
2020/12/21 01:11:00;;;;;;;162.03;52.00;;;;;;;-2.86;100.00;100030.47;2071920;28;20223;-72
2020/12/21 01:12:00;;;;;;;159.90;50.53;;;;;;;-2.83;100.00;100018.03;2071520;28;20231;-72
2020/12/21 01:13:02;;;;;;;137.87;48.73;;;;;;;-2.89;100.00;100028.22;2087961;28;20242;-72
2020/12/21 01:14:03;;;;;;;175.80;51.42;;;;;;;-2.92;100.00;100031.19;2087984;28;20222;-72
2020/12/21 01:15:04;;;;;;;149.60;51.08;;;;;;;-2.98;100.00;100016.25;2072236;28;20263;-72
2020/12/21 01:16:05;;;;;;;162.85;50.95;;;;;;;-3.04;100.00;100024.00;2072162;28;20306;-72
2020/12/21 01:17:06;;;;;;;149.43;51.23;;;;;;;-3.03;100.00;100031.69;2087913;28;20218;-72
2020/12/21 01:18:07;;;;;;;159.70;52.00;;;;;;;-3.05;100.00;100027.63;2093889;28;20240;-72
2020/12/21 01:19:09;;;;;;;144.87;49.43;;;;;;;-3.10;100.00;100016.94;2079560;28;20231;-72
2020/12/21 01:20:12;;;;;;;183.70;51.30;;;;;;;-3.11;100.00;100023.97;2079681;28;20219;-73
2020/12/21 01:21:22;;;;;;;174.88;49.45;;;;;;;-2.97;100.00;100035.34;2080253;28;20277;-72
2020/12/21 01:22:23;;;;;;;156.30;48.92;;;;;;;-2.94;100.00;100033.19;2079076;28;20592;-73
2020/12/21 01:23:24;;;;;;;149.13;48.73;;;;;;;-3.01;100.00;100040.13;2071259;28;20327;-72
2020/12/21 01:24:24;;;;;;;176.18;49.50;;;;;;;-2.97;100.00;100035.34;2079522;28;20721;-72
2020/12/21 01:25:26;;;;;;;136.53;47.83;;;;;;;-3.00;100.00;100036.53;2079356;28;20682;-72
2020/12/21 01:26:28;;;;;;;173.60;50.67;;;;;;;-3.09;100.00;100032.41;2079715;28;26932;-72
2020/12/21 01:27:29;;;;;;;142.85;47.83;;;;;;;-3.06;100.00;100037.25;2080488;28;20710;-73
2020/12/21 01:28:30;;;;;;;172.05;50.78;;;;;;;-3.05;100.00;100038.88;2079556;28;20224;-72
2020/12/21 01:29:31;;;;;;;145.03;48.60;;;;;;;-3.06;100.00;100032.03;2079675;28;20301;-72
2020/12/21 01:30:32;;;;;;;182.93;51.63;;;;;;;-3.06;100.00;100032.03;2095617;28;20233;-72
2020/12/21 01:31:33;;;;;;;184.47;52.97;;;;;;;-3.05;100.00;100044.09;2096252;28;20229;-72
2020/12/21 01:32:34;;;;;;;187.75;51.97;;;;;;;-3.05;100.00;100038.88;2095744;28;20312;-72
2020/12/21 01:33:35;;;;;;;184.10;50.27;;;;;;;-3.09;100.00;100035.03;2096331;28;20692;-72
2020/12/21 01:34:36;;;;;;;202.05;53.40;;;;;;;-3.06;100.00;100039.06;2079793;28;20227;-72
2020/12/21 01:35:37;;;;;;;162.80;50.80;;;;;;;-3.05;100.00;100032.84;2079452;28;20306;-72
2020/12/21 01:36:38;;;;;;;154.07;49.95;;;;;;;-3.03;100.00;100031.69;2064719;28;20687;-72
2020/12/21 01:37:39;;;;;;;181.83;51.73;;;;;;;-3.06;100.00;100026.00;2071564;28;20613;-72
2020/12/21 01:38:40;;;;;;;190.88;53.92;;;;;;;-3.04;100.00;100037.06;2071107;28;20227;-72
2020/12/21 01:39:48;;;;;;;170.57;50.57;;;;;;;-3.09;100.00;100031.59;2073570;28;20703;-72
2020/12/21 01:40:48;;;;;;;190.30;52.22;;;;;;;-3.05;100.00;100031.03;2077110;28;20214;-72
2020/12/21 01:41:50;;;;;;;204.70;51.50;;;;;;;-3.04;100.00;100031.84;2079533;28;20230;-72
2020/12/21 01:42:52;;;;;;;170.52;56.00;;;;;;;-3.06;100.00;100036.44;2087324;28;20229;-72
2020/12/21 01:43:55;;;;;;;170.05;51.28;;;;;;;-3.05;100.00;100032.84;2087333;28;20250;-72
2020/12/21 01:44:56;;;;;;;182.10;51.65;;;;;;;-3.06;100.00;100042.47;2079616;28;20243;-72
2020/12/21 01:45:57;;;;;;;133.43;47.07;;;;;;;-3.03;100.00;100039.50;2080142;28;20254;-72
2020/12/21 01:47:00;;;;;;;179.35;52.13;;;;;;;-3.15;100.00;100023.50;2080364;28;20626;-72
2020/12/21 01:48:01;;;;;;;184.13;49.47;;;;;;;-3.06;100.00;100037.25;2079199;28;20311;-73
2020/12/21 01:49:02;;;;;;;171.67;50.70;;;;;;;-3.06;100.00;100029.41;2079745;28;20255;-72
2020/12/21 01:50:05;;;;;;;170.65;51.67;;;;;;;-3.08;100.00;100028.81;2079746;28;20230;-72
2020/12/21 01:51:06;;;;;;;236.15;55.80;;;;;;;-3.17;100.00;100027.28;2079703;28;20222;-72
2020/12/21 01:52:07;;;;;;;157.23;49.83;;;;;;;-3.13;100.00;100028.53;2079813;28;20281;-74
2020/12/21 01:53:10;;;;;;;140.45;48.53;;;;;;;-3.15;100.00;100028.72;2080159;28;20280;-72
2020/12/21 01:54:11;;;;;;;156.55;48.42;;;;;;;-3.13;100.00;100031.97;2080313;28;20243;-73
2020/12/21 01:55:12;;;;;;;168.07;50.70;;;;;;;-3.08;100.00;100034.03;2079639;28;20702;-73
2020/12/21 01:56:15;;;;;;;194.98;49.80;;;;;;;-3.13;100.00;100028.53;2079438;28;20223;-72
2020/12/21 01:57:17;;;;;;;151.27;47.58;;;;;;;-3.11;100.00;100031.78;2079290;28;20227;-72
2020/12/21 01:58:18;;;;;;;162.15;48.80;;;;;;;-3.04;100.00;100029.22;2080264;28;20231;-72
2020/12/21 01:59:20;;;;;;;169.80;49.60;;;;;;;-3.12;100.00;100022.34;2079459;28;20223;-73
2020/12/21 02:00:20;;;;;;;172.90;50.63;;;;;;;-3.09;100.00;100021.16;2079328;28;20234;-72
2020/12/21 02:01:22;;;;;;;169.70;48.93;;;;;;;-3.05;100.00;100017.19;2079635;28;20323;-72
2020/12/21 02:02:23;;;;;;;187.63;50.50;;;;;;;-3.00;100.00;100018.25;2079092;28;20270;-73
2020/12/21 02:03:24;;;;;;;165.53;53.30;;;;;;;-3.08;100.00;100020.97;2080109;28;20712;-72
2020/12/21 02:04:25;;;;;;;155.32;52.53;;;;;;;-3.02;100.00;100028.06;2080274;28;20223;-72
2020/12/21 02:05:26;;;;;;;194.13;52.93;;;;;;;-3.05;100.00;100017.97;2079350;28;20705;-72
2020/12/21 02:06:27;;;;;;;178.52;53.90;;;;;;;-3.06;100.00;100020.78;2079522;28;20235;-73
2020/12/21 02:07:28;;;;;;;194.03;51.50;;;;;;;-3.02;100.00;100014.22;2080234;28;20244;-74
2020/12/21 02:08:29;;;;;;;194.02;55.20;;;;;;;-3.06;100.00;100026.81;2080151;28;20231;-73
2020/12/21 02:09:30;;;;;;;177.80;52.33;;;;;;;-3.06;100.00;100010.34;2079300;28;20228;-73
2020/12/21 02:10:32;;;;;;;215.13;54.38;;;;;;;-3.03;100.00;100021.25;2071167;28;20694;-72
2020/12/21 02:11:33;;;;;;;179.15;53.00;;;;;;;-3.09;100.00;100021.16;2071322;28;20714;-73
2020/12/21 02:12:34;;;;;;;164.10;51.30;;;;;;;-3.16;100.00;100015.84;2071153;28;20227;-73
2020/12/21 02:13:36;;;;;;;156.52;50.70;;;;;;;-3.07;100.00;100025.19;2071483;28;20247;-72
2020/12/21 02:14:36;;;;;;;167.75;52.90;;;;;;;-3.03;100.00;100025.66;2070876;28;20228;-75
2020/12/21 02:15:38;;;;;;;146.70;51.67;;;;;;;-3.02;100.00;100032.50;2079487;28;20223;-73
2020/12/21 02:16:38;;;;;;;167.40;52.72;;;;;;;-3.06;100.00;100026.81;2079443;28;20231;-72
2020/12/21 02:17:39;;;;;;;167.30;53.03;;;;;;;-3.03;100.00;100025.66;2079480;28;20227;-72
2020/12/21 02:18:40;;;;;;;161.02;52.95;;;;;;;-3.00;100.00;100031.31;2080230;28;20250;-72
2020/12/21 02:19:42;;;;;;;172.83;55.07;;;;;;;-3.06;100.00;100024.19;2080204;28;20235;-72
2020/12/21 02:20:43;;;;;;;146.30;52.72;;;;;;;-3.05;100.00;100019.78;2079257;28;20227;-72
2020/12/21 02:21:44;;;;;;;224.88;55.47;;;;;;;-3.00;100.00;100025.28;2079474;28;20311;-72
2020/12/21 02:22:45;;;;;;;159.13;52.50;;;;;;;-3.03;100.00;100020.44;2079358;28;20219;-71
2020/12/21 02:23:46;;;;;;;166.37;55.23;;;;;;;-3.05;100.00;100022.41;2079405;28;20306;-72
2020/12/21 02:24:47;;;;;;;173.75;55.03;;;;;;;-3.15;100.00;100020.88;2079025;28;20258;-72
2020/12/21 02:25:48;;;;;;;167.73;52.93;;;;;;;-3.13;100.00;100024.16;2079434;28;20227;-72
2020/12/21 02:26:49;;;;;;;217.98;55.28;;;;;;;-3.05;100.00;100027.63;2080238;28;20318;-72
2020/12/21 02:27:50;;;;;;;235.37;54.17;;;;;;;-3.07;100.00;100027.81;2079340;28;20322;-72
2020/12/21 02:28:51;;;;;;;195.90;52.13;;;;;;;-3.14;100.00;100025.13;2079275;28;20234;-72
2020/12/21 02:29:52;;;;;;;162.30;54.17;;;;;;;-3.17;100.00;100033.31;2095407;28;20309;-73
2020/12/21 02:30:53;;;;;;;167.88;48.65;;;;;;;-3.11;100.00;100031.78;2095792;28;20234;-72
2020/12/21 02:31:54;;;;;;;184.63;53.00;;;;;;;-3.07;100.00;100030.41;2080049;28;20231;-71
2020/12/21 02:32:55;;;;;;;139.02;49.10;;;;;;;-3.10;100.00;100017.75;2079942;28;20234;-72
2020/12/21 02:33:57;;;;;;;181.97;52.67;;;;;;;-3.10;100.00;100022.97;2080771;28;20772;-72
2020/12/21 02:34:57;;;;;;;179.43;50.00;;;;;;;-3.08;100.00;100020.97;2081690;28;20235;-71
2020/12/21 02:35:59;;;;;;;232.43;51.67;;;;;;;-2.99;100.00;100025.09;2081625;28;20257;-72
2020/12/21 02:37:00;;;;;;;197.93;50.72;;;;;;;-3.03;100.00;100015.22;2080730;28;20227;-71
2020/12/21 02:38:06;;;;;;;143.80;49.10;;;;;;;-3.02;100.00;100020.25;2080740;28;20258;-72
2020/12/21 02:39:07;;;;;;;170.75;51.13;;;;;;;-2.97;100.00;100030.13;2081247;28;20253;-72
2020/12/21 02:40:08;;;;;;;203.17;50.30;;;;;;;-2.93;100.00;100029.59;2080969;28;20242;-72
2020/12/21 02:41:13;;;;;;;191.25;52.53;;;;;;;-2.98;100.00;100024.09;2080814;28;20261;-72
2020/12/21 02:42:14;;;;;;;176.15;53.60;;;;;;;-3.03;100.00;100021.25;2081575;28;20298;-72
2020/12/21 02:43:15;;;;;;;162.02;49.75;;;;;;;-3.06;100.00;100021.59;2081498;28;20226;-71
2020/12/21 02:44:16;;;;;;;182.13;51.33;;;;;;;-3.10;100.00;100025.56;2081591;28;20246;-72
2020/12/21 02:45:17;;;;;;;186.32;53.33;;;;;;;-3.08;100.00;100026.19;2081495;28;20304;-72
2020/12/21 02:46:18;;;;;;;197.57;51.23;;;;;;;-3.04;100.00;100024.84;2080913;28;20265;-72
2020/12/21 02:47:19;;;;;;;164.80;50.13;;;;;;;-3.06;100.00;100029.41;2080874;28;20282;-71
2020/12/21 02:48:20;;;;;;;196.90;53.03;;;;;;;-3.06;100.00;100020.78;2081401;28;20253;-72
2020/12/21 02:49:21;;;;;;;176.02;51.80;;;;;;;-3.06;100.00;100024.19;2081472;28;20216;-72
2020/12/21 02:50:22;;;;;;;181.73;54.20;;;;;;;-3.05;100.00;100025.00;2081217;28;20310;-73
2020/12/21 02:51:24;;;;;;;179.38;52.13;;;;;;;-3.08;100.00;100020.97;2081139;28;20340;-72
2020/12/21 02:52:25;;;;;;;166.43;52.35;;;;;;;-3.15;100.00;100022.69;2081404;28;20235;-72
2020/12/21 02:53:26;;;;;;;188.50;50.90;;;;;;;-3.10;100.00;100022.16;2080660;28;20235;-72
2020/12/21 02:54:27;;;;;;;166.70;49.47;;;;;;;-3.09;100.00;100036.81;2080761;28;20234;-72
2020/12/21 02:55:27;;;;;;;212.52;52.95;;;;;;;-3.14;100.00;100029.53;2081416;28;20231;-72
2020/12/21 02:56:29;;;;;;;220.77;53.20;;;;;;;-3.16;100.00;100027.09;2080774;28;20239;-71
2020/12/21 02:57:29;;;;;;;193.27;49.05;;;;;;;-3.19;100.00;100037.91;2072510;28;20698;-72
2020/12/21 02:58:31;;;;;;;182.67;51.80;;;;;;;-3.27;100.00;100024.16;2080776;28;20643;-72
2020/12/21 02:59:31;;;;;;;180.52;54.30;;;;;;;-3.23;100.00;100025.41;2080642;28;20215;-72
2020/12/21 03:00:34;;;;;;;186.27;50.17;;;;;;;-3.24;100.00;100027.19;2080702;28;20253;-73
2020/12/21 03:01:34;;;;;;;227.02;52.00;;;;;;;-3.22;100.00;100027.03;2081436;28;20253;-73
2020/12/21 03:02:35;;;;;;;201.67;52.97;;;;;;;-3.24;100.00;100029.81;2081232;28;20227;-73
2020/12/21 03:03:36;;;;;;;195.00;51.25;;;;;;;-3.23;100.00;100028.00;2081362;28;20753;-72
2020/12/21 03:04:37;;;;;;;204.50;52.20;;;;;;;-3.25;100.00;100022.19;2080084;28;20644;-73
2020/12/21 03:05:38;;;;;;;247.52;53.65;;;;;;;-3.19;100.00;100026.66;2080583;28;20553;-72
2020/12/21 03:06:40;;;;;;;235.30;54.03;;;;;;;-3.21;100.00;100024.25;2081328;28;20288;-72
2020/12/21 03:07:41;;;;;;;245.23;52.55;;;;;;;-3.17;100.00;100030.72;2080301;28;20231;-72
2020/12/21 03:08:42;;;;;;;185.13;52.97;;;;;;;-3.20;100.00;100031.09;2080547;28;20686;-72
2020/12/21 03:09:43;;;;;;;205.23;51.28;;;;;;;-3.25;100.00;100022.19;2072190;28;20583;-72
2020/12/21 03:10:44;;;;;;;159.60;51.40;;;;;;;-3.22;100.00;100030.44;2072321;28;20303;-72
2020/12/21 03:11:45;;;;;;;196.05;52.33;;;;;;;-3.21;100.00;100034.69;2080550;28;20219;-72
2020/12/21 03:12:46;;;;;;;201.20;52.17;;;;;;;-3.11;100.00;100028.38;2097229;28;20218;-72
2020/12/21 03:13:47;;;;;;;222.10;51.33;;;;;;;-3.07;100.00;100030.41;2088688;28;20218;-72
2020/12/21 03:14:48;;;;;;;188.17;49.20;;;;;;;-3.20;100.00;100020.66;2080094;28;20254;-72
2020/12/21 03:15:49;;;;;;;194.65;49.67;;;;;;;-3.13;100.00;100025.91;2080523;28;20230;-72
2020/12/21 03:16:50;;;;;;;183.23;51.10;;;;;;;-3.14;100.00;100032.94;2080818;28;20229;-72
2020/12/21 03:17:50;;;;;;;232.63;51.65;;;;;;;-3.09;100.00;100039.44;2080435;28;20227;-72
2020/12/21 03:18:52;;;;;;;152.03;51.67;;;;;;;-3.16;100.00;100039.34;2080643;28;20340;-72
2020/12/21 03:19:52;;;;;;;136.63;48.20;;;;;;;-3.19;100.00;100031.91;2075860;28;20718;-72
2020/12/21 03:20:53;;;;;;;163.47;48.50;;;;;;;-3.15;100.00;100043.56;2072957;28;20250;-72
2020/12/21 03:21:55;;;;;;;172.63;52.05;;;;;;;-3.17;100.00;100029.91;2073012;28;20239;-72
2020/12/21 03:22:56;;;;;;;148.93;52.80;;;;;;;-3.10;100.00;100046.44;2073091;28;20227;-72
2020/12/21 03:23:57;;;;;;;147.98;49.67;;;;;;;-3.08;100.00;100043.66;2072531;28;20650;-72
2020/12/21 03:25:00;;;;;;;160.70;49.47;;;;;;;-3.06;100.00;100039.06;2080138;28;20314;-72
2020/12/21 03:26:01;;;;;;;212.40;53.67;;;;;;;-3.02;100.00;100038.53;2088150;28;20242;-73
2020/12/21 03:27:02;;;;;;;172.73;50.00;;;;;;;-3.02;100.00;100038.53;2072857;28;20231;-72
2020/12/21 03:28:02;;;;;;;161.60;49.75;;;;;;;-2.93;100.00;100034.00;2072968;28;20228;-72
2020/12/21 03:29:04;;;;;;;228.33;52.33;;;;;;;-2.94;100.00;100035.81;2072527;28;20224;-72
2020/12/21 03:30:05;;;;;;;235.90;50.15;;;;;;;-3.01;100.00;100034.09;2072338;28;20582;-71
2020/12/21 03:31:06;;;;;;;230.07;49.88;;;;;;;-3.13;100.00;100015.47;2073078;28;20303;-71
2020/12/21 03:32:07;;;;;;;185.77;49.60;;;;;;;-2.90;100.00;100034.44;2071749;28;20228;-72
2020/12/21 03:33:08;;;;;;;225.60;49.40;;;;;;;-2.92;100.00;100038.22;2072090;28;20311;-72
2020/12/21 03:34:09;;;;;;;177.35;49.08;;;;;;;-2.95;100.00;100042.03;2072108;28;20671;-71
2020/12/21 03:35:10;;;;;;;199.70;52.40;;;;;;;-2.99;100.00;100043.38;2072928;28;20589;-71
2020/12/21 03:36:11;;;;;;;237.18;50.03;;;;;;;-3.04;100.00;100045.72;2072100;28;20282;-72
2020/12/21 03:37:13;;;;;;;201.20;49.73;;;;;;;-3.10;100.00;100041.22;2072229;28;20255;-72
2020/12/21 03:38:13;;;;;;;175.20;48.67;;;;;;;-3.14;100.00;100042.56;2072989;28;20216;-71
2020/12/21 03:39:14;;;;;;;180.47;48.47;;;;;;;-3.10;100.00;100045.66;2072528;28;20220;-72
2020/12/21 03:40:17;;;;;;;216.73;49.03;;;;;;;-3.19;100.00;100030.09;2072034;28;20223;-72
2020/12/21 03:41:19;;;;;;;210.98;50.92;;;;;;;-3.09;100.00;100042.03;2072178;28;20303;-72
2020/12/21 03:42:19;;;;;;;173.57;48.42;;;;;;;-3.13;100.00;100039.81;2072899;28;20690;-72
2020/12/21 03:43:23;;;;;;;239.50;51.63;;;;;;;-3.18;100.00;100039.53;2073675;28;20706;-73
2020/12/21 03:44:24;;;;;;;194.63;48.67;;;;;;;-3.20;100.00;100038.09;2072104;28;20224;-72
2020/12/21 03:45:25;;;;;;;222.57;48.83;;;;;;;-3.20;100.00;100035.50;2088430;28;20280;-72
2020/12/21 03:46:26;;;;;;;205.52;53.95;;;;;;;-3.19;100.00;100037.09;2079832;28;20223;-72
2020/12/21 03:47:27;;;;;;;196.13;51.63;;;;;;;-3.21;100.00;100033.88;2063858;28;20747;-72
2020/12/21 03:48:28;;;;;;;200.15;48.95;;;;;;;-3.12;100.00;100040.63;2071975;28;20620;-73
2020/12/21 03:49:29;;;;;;;203.13;54.17;;;;;;;-3.20;100.00;100031.09;2072709;28;20236;-72
2020/12/21 03:50:30;;;;;;;227.13;51.28;;;;;;;-3.22;100.00;100035.66;2071945;28;20234;-72
2020/12/21 03:51:31;;;;;;;254.97;52.27;;;;;;;-3.29;100.00;100018.31;2072076;28;20227;-72
2020/12/21 03:52:33;;;;;;;212.07;50.08;;;;;;;-3.22;100.00;100027.81;2072926;28;20220;-72
2020/12/21 03:53:34;;;;;;;219.52;52.30;;;;;;;-3.28;100.00;100017.34;2072252;28;20302;-73
2020/12/21 03:54:35;;;;;;;156.65;47.42;;;;;;;-3.20;100.00;100027.66;2072201;28;20220;-72
2020/12/21 03:55:36;;;;;;;285.47;52.37;;;;;;;-3.18;100.00;100008.22;2093948;28;20736;-73
2020/12/21 03:56:43;;;;;;;219.70;49.92;;;;;;;-3.09;100.00;100019.34;2088169;28;20222;-74
2020/12/21 03:57:44;;;;;;;183.55;49.92;;;;;;;-3.09;100.00;100021.97;2080130;28;20605;-73
2020/12/21 03:58:44;;;;;;;251.77;52.67;;;;;;;-3.11;100.00;100023.16;2080879;28;20293;-72
2020/12/21 03:59:46;;;;;;;342.60;54.70;;;;;;;-3.06;100.00;100024.19;2080176;28;20328;-72
2020/12/21 04:00:47;;;;;;;191.63;48.90;;;;;;;-3.05;100.00;100028.44;2080266;28;20226;-73
2020/12/21 04:01:48;;;;;;;253.27;55.67;;;;;;;-3.04;100.00;100019.63;2080160;28;20302;-73
2020/12/21 04:02:49;;;;;;;346.75;54.25;;;;;;;-3.10;100.00;100017.75;2080199;28;20247;-73
2020/12/21 04:03:50;;;;;;;313.97;54.17;;;;;;;-3.17;100.00;100020.28;2080875;28;20235;-73
2020/12/21 04:04:50;;;;;;;243.20;48.83;;;;;;;-3.24;100.00;100008.94;2080732;28;20223;-73
2020/12/21 04:05:52;;;;;;;221.23;50.63;;;;;;;-3.24;100.00;100008.13;2080755;28;20674;-72
2020/12/21 04:06:52;;;;;;;220.23;51.75;;;;;;;-3.17;100.00;100015.06;2080519;28;20227;-73
2020/12/21 04:07:54;;;;;;;153.60;50.53;;;;;;;-3.22;100.00;100012.16;2080740;28;20305;-72
2020/12/21 04:08:55;;;;;;;243.57;49.72;;;;;;;-3.17;100.00;100014.25;2079995;28;20223;-73
2020/12/21 04:09:56;;;;;;;188.87;49.80;;;;;;;-3.19;100.00;100018.84;2080126;28;20230;-73
2020/12/21 04:10:58;;;;;;;188.93;47.63;;;;;;;-3.06;100.00;100020.78;2078874;28;20249;-72
2020/12/21 04:11:59;;;;;;;213.50;50.63;;;;;;;-3.05;100.00;100025.00;2079927;28;20227;-72
2020/12/21 04:13:00;;;;;;;174.43;49.85;;;;;;;-3.09;100.00;100021.97;2071928;28;20235;-73
2020/12/21 04:14:01;;;;;;;164.53;49.87;;;;;;;-3.04;100.00;100024.84;2080059;28;20314;-72
2020/12/21 04:15:03;;;;;;;181.88;50.08;;;;;;;-3.09;100.00;100014.13;2080887;28;20577;-74
2020/12/21 04:16:04;;;;;;;188.18;50.47;;;;;;;-3.11;100.00;100012.72;2080873;28;20216;-73
2020/12/21 04:17:05;;;;;;;146.88;49.88;;;;;;;-3.06;100.00;100011.16;2080734;28;20246;-72
2020/12/21 04:18:06;;;;;;;145.83;46.83;;;;;;;-3.03;100.00;100010.81;2080876;28;20303;-73
2020/12/21 04:19:07;;;;;;;140.98;46.30;;;;;;;-3.00;100.00;99999.97;2074214;28;20235;-73
2020/12/21 04:20:08;;;;;;;172.57;46.17;;;;;;;-2.96;100.00;100006.44;2072571;28;20243;-72
2020/12/21 04:21:09;;;;;;;132.85;44.95;;;;;;;-2.93;100.00;100005.28;2072456;28;20228;-72
2020/12/21 04:22:10;;;;;;;147.27;47.15;;;;;;;-2.99;100.00;100008.63;2072518;28;20246;-72
2020/12/21 04:23:12;;;;;;;129.60;46.70;;;;;;;-3.01;100.00;100014.03;2072616;28;20228;-72
2020/12/21 04:24:13;;;;;;;136.77;48.75;;;;;;;-3.01;100.00;100011.41;2072590;28;20263;-72
2020/12/21 04:25:14;;;;;;;128.13;47.70;;;;;;;-2.98;100.00;100012.84;2071600;28;20561;-72
2020/12/21 04:26:17;;;;;;;149.50;46.60;;;;;;;-2.93;100.00;100016.53;2071914;28;20270;-73
2020/12/21 04:27:18;;;;;;;124.75;45.58;;;;;;;-3.03;100.00;100020.44;2071871;28;20285;-72
2020/12/21 04:28:19;;;;;;;154.53;44.73;;;;;;;-3.08;100.00;100013.13;2072033;28;20216;-73
2020/12/21 04:29:20;;;;;;;157.48;50.47;;;;;;;-3.10;100.00;100017.75;2077487;28;20220;-73
2020/12/21 04:30:21;;;;;;;149.63;45.30;;;;;;;-3.15;100.00;100027.91;2080027;28;20290;-72
2020/12/21 04:31:22;;;;;;;161.15;50.03;;;;;;;-3.14;100.00;100013.88;2095940;28;20226;-73
2020/12/21 04:32:23;;;;;;;163.10;45.70;;;;;;;-3.14;100.00;100029.53;2088330;28;20305;-73